Time;durP1;ratioP1;P1;durP2;ratioP2;P2;SDS_P1;SDS_P2;PMS_P1;PMS_P2;Temp;Humidity;BMP_temperature;BMP_pressure;BME280_temperature;BME280_humidity;BME280_pressure;Samples;Min_cycle;Max_cycle;Signal;HPM_P1;HPM_P2
2022/08/18 00:02:24;;;;;;;9.30;6.40;;;;;;;22.53;75.20;99753.06;1815714;78;21474;-76
2022/08/18 00:04:56;;;;;;;12.10;6.75;;;;;;;22.50;75.29;99748.06;1768552;80;21019;-78
2022/08/18 00:07:30;;;;;;;9.43;6.05;;;;;;;22.45;75.42;99745.59;1803189;78;21082;-79
2022/08/18 00:09:59;;;;;;;9.80;6.15;;;;;;;22.41;75.45;99745.07;1790253;78;21011;-78
2022/08/18 00:12:36;;;;;;;12.40;5.95;;;;;;;22.40;75.46;99739.22;1770410;80;21038;-76
2022/08/18 00:15:10;;;;;;;9.03;5.97;;;;;;;22.40;75.37;99743.41;1793572;79;21028;-79
2022/08/18 00:17:39;;;;;;;8.90;6.30;;;;;;;22.36;75.53;99741.76;1804790;79;21021;-77
2022/08/18 00:20:13;;;;;;;11.50;6.25;;;;;;;22.28;75.89;99744.34;1798485;80;21012;-78
2022/08/18 00:22:43;;;;;;;12.03;6.10;;;;;;;22.25;75.79;99753.30;1797932;79;21087;-78
2022/08/18 00:25:15;;;;;;;11.33;6.10;;;;;;;22.24;75.73;99756.66;1808450;78;21516;-78
2022/08/18 00:27:44;;;;;;;9.48;5.80;;;;;;;22.23;75.73;99754.98;1796153;79;21029;-79
2022/08/18 00:30:17;;;;;;;10.40;5.72;;;;;;;22.24;75.60;99760.84;1791333;79;21051;-75
2022/08/18 00:32:53;;;;;;;10.08;5.70;;;;;;;22.26;75.53;99753.56;1771774;78;21072;-77
2022/08/18 00:35:33;;;;;;;11.80;5.87;;;;;;;22.25;75.44;99750.51;1779951;79;21066;-78
2022/08/18 00:38:05;;;;;;;9.83;5.80;;;;;;;22.25;75.49;99744.36;1810090;78;21026;-79
2022/08/18 00:40:39;;;;;;;11.97;6.05;;;;;;;22.24;75.34;99748.84;1796507;78;21209;-77
2022/08/18 00:43:18;;;;;;;11.57;5.90;;;;;;;22.20;75.44;99744.97;1800414;78;21493;-79
2022/08/18 00:45:47;;;;;;;12.63;5.65;;;;;;;22.18;75.52;99743.86;1793192;78;21049;-79
2022/08/18 00:48:16;;;;;;;10.13;5.83;;;;;;;22.18;75.45;99742.47;1784099;78;21410;-77
2022/08/18 00:50:59;;;;;;;10.58;5.40;;;;;;;22.18;75.29;99746.65;1795717;78;21046;-78
2022/08/18 00:53:36;;;;;;;13.60;5.58;;;;;;;22.17;75.22;99749.73;1785875;78;21015;-77
2022/08/18 00:56:10;;;;;;;10.30;6.03;;;;;;;22.19;75.19;99756.69;1810071;78;22035;-79
2022/08/18 00:58:50;;;;;;;10.32;5.37;;;;;;;22.16;75.11;99748.89;1809687;78;21474;-78
2022/08/18 01:01:26;;;;;;;10.23;5.60;;;;;;;22.14;75.16;99742.77;1784053;78;20995;-77
2022/08/18 01:04:02;;;;;;;8.53;5.53;;;;;;;22.10;75.14;99745.28;1795728;78;20983;-77
2022/08/18 01:06:59;;;;;;;8.98;5.37;;;;;;;22.08;75.21;99741.11;1786435;80;21025;-78
2022/08/18 01:09:29;;;;;;;7.75;5.70;;;;;;;22.05;75.24;99741.69;1785308;80;21006;-78
2022/08/18 01:11:58;;;;;;;9.20;5.22;;;;;;;22.02;75.23;99740.84;1772569;80;21523;-79
2022/08/18 01:14:28;;;;;;;8.15;4.95;;;;;;;22.01;75.30;99740.57;1802981;78;21468;-78
2022/08/18 01:22:55;;;;;;;12.28;5.45;;;;;;;21.89;75.29;99754.04;1788256;78;21100;-78
2022/08/18 01:28:16;;;;;;;7.35;5.33;;;;;;;21.72;75.69;99748.27;1776610;80;21041;-78
2022/08/18 01:30:48;;;;;;;9.83;5.12;;;;;;;21.71;75.78;99743.82;1798229;78;21017;-77
2022/08/18 01:33:17;;;;;;;10.70;4.90;;;;;;;21.72;75.83;99745.48;1765406;80;21042;-77
2022/08/18 01:35:48;;;;;;;8.43;5.28;;;;;;;21.69;75.88;99744.66;1764839;80;21447;-78
2022/08/18 01:38:18;;;;;;;8.20;5.40;;;;;;;21.68;75.86;99745.78;1807146;78;21042;-77
2022/08/18 01:40:48;;;;;;;8.35;5.37;;;;;;;21.67;75.82;99751.09;1797337;79;20986;-77
2022/08/18 01:43:20;;;;;;;10.03;4.87;;;;;;;21.67;75.94;99753.88;1801546;79;21042;-79
2022/08/18 01:45:50;;;;;;;10.03;4.95;;;;;;;21.66;75.84;99752.21;1802808;78;21030;-77
2022/08/18 01:48:20;;;;;;;15.40;5.58;;;;;;;21.65;75.65;99756.12;1808231;79;20991;-78
2022/08/18 01:50:49;;;;;;;8.35;5.42;;;;;;;21.64;75.62;99756.41;1815124;79;21343;-77
2022/08/18 01:53:19;;;;;;;7.87;5.08;;;;;;;21.63;75.57;99760.31;1797488;79;21462;-78
2022/08/18 01:55:49;;;;;;;11.22;5.12;;;;;;;21.61;75.57;99761.16;1803524;79;20999;-78
2022/08/18 01:58:21;;;;;;;10.00;4.80;;;;;;;21.57;75.54;99765.08;1810433;78;21042;-77
2022/08/18 02:00:50;;;;;;;9.93;5.17;;;;;;;21.54;75.62;99764.26;1812680;79;21479;-77
2022/08/18 02:03:19;;;;;;;9.93;5.45;;;;;;;21.55;75.69;99771.50;1803217;79;21001;-78
2022/08/18 02:05:50;;;;;;;12.35;6.03;;;;;;;21.51;75.75;99767.62;1798735;79;21039;-77
2022/08/18 02:08:21;;;;;;;9.83;5.37;;;;;;;21.49;75.80;99768.46;1798650;79;21009;-78
2022/08/18 02:10:53;;;;;;;8.53;5.40;;;;;;;21.50;75.72;99775.70;1812343;78;21026;-77
2022/08/18 02:13:24;;;;;;;9.38;5.25;;;;;;;21.50;75.70;99778.49;1810501;78;21007;-78
2022/08/18 02:15:53;;;;;;;11.10;5.42;;;;;;;21.50;75.72;99767.34;1798079;79;21434;-78
2022/08/18 02:18:30;;;;;;;12.70;5.00;;;;;;;21.47;75.64;99772.09;1817358;78;21082;-76
2022/08/18 02:21:00;;;;;;;10.95;5.33;;;;;;;21.42;75.61;99774.31;1811077;78;21079;-77
2022/08/18 02:23:30;;;;;;;8.63;5.67;;;;;;;21.37;75.62;99772.10;1776109;79;21479;-78
2022/08/18 02:26:06;;;;;;;9.23;5.42;;;;;;;21.35;75.67;99764.59;1813344;79;20999;-78
2022/08/18 02:28:34;;;;;;;11.15;4.83;;;;;;;21.35;75.58;99772.95;1801736;79;21007;-78
2022/08/18 02:31:07;;;;;;;9.25;5.22;;;;;;;21.34;75.51;99768.49;1815213;78;21443;-78
2022/08/18 02:33:38;;;;;;;11.73;6.00;;;;;;;21.33;75.36;99769.61;1810297;79;21074;-76
2022/08/18 02:36:10;;;;;;;10.78;5.17;;;;;;;21.30;75.28;99761.81;1803759;79;21007;-78
2022/08/18 02:38:40;;;;;;;10.35;5.53;;;;;;;21.28;75.39;99766.84;1808134;79;21015;-77
2022/08/18 02:41:13;;;;;;;12.00;5.55;;;;;;;21.24;75.45;99769.92;1805216;79;21031;-78
2022/08/18 02:43:43;;;;;;;12.95;5.58;;;;;;;21.25;75.44;99761.83;1806803;78;21025;-78
2022/08/18 02:46:13;;;;;;;6.40;5.10;;;;;;;21.24;75.33;99772.14;1808668;79;21524;-78
2022/08/18 02:48:43;;;;;;;11.83;5.58;;;;;;;21.20;75.30;99763.48;1802102;79;21449;-78
2022/08/18 02:51:16;;;;;;;12.95;5.20;;;;;;;21.15;75.37;99767.68;1797429;79;21035;-77
2022/08/18 02:53:46;;;;;;;8.83;5.45;;;;;;;21.14;75.41;99773.53;1808116;79;21038;-78
2022/08/18 02:56:28;;;;;;;9.10;5.45;;;;;;;21.13;75.43;99776.88;1812628;78;20987;-76
2022/08/18 02:59:04;;;;;;;8.85;5.00;;;;;;;21.11;75.37;99774.94;1811522;79;21015;-76
2022/08/18 03:01:38;;;;;;;9.63;5.22;;;;;;;21.07;75.49;99776.62;1814445;79;21017;-77
2022/08/18 03:04:11;;;;;;;10.90;5.75;;;;;;;21.03;75.62;99776.91;1786952;79;21085;-78
2022/08/18 03:06:41;;;;;;;10.32;5.35;;;;;;;21.00;75.80;99777.47;1812455;79;21034;-77
2022/08/18 03:09:14;;;;;;;9.60;5.90;;;;;;;21.00;75.81;99773.84;1809763;79;21015;-78
2022/08/18 03:11:45;;;;;;;8.80;5.62;;;;;;;21.00;75.82;99776.08;1795609;79;21424;-77
2022/08/18 03:14:14;;;;;;;10.20;6.33;;;;;;;21.04;75.79;99775.79;1817909;78;21416;-77
2022/08/18 03:16:46;;;;;;;10.58;5.50;;;;;;;21.05;75.68;99780.24;1808355;79;21062;-78
2022/08/18 03:19:17;;;;;;;9.78;5.42;;;;;;;21.03;75.68;99775.52;1791684;79;21006;-78
2022/08/18 03:21:47;;;;;;;11.65;6.17;;;;;;;21.01;75.68;99783.31;1823172;79;21026;-79
2022/08/18 03:24:17;;;;;;;10.95;6.08;;;;;;;20.97;75.69;99781.38;1809936;79;21042;-78
2022/08/18 03:26:49;;;;;;;10.28;5.55;;;;;;;20.92;75.85;99780.83;1801509;79;21082;-79
2022/08/18 03:29:19;;;;;;;13.68;5.60;;;;;;;20.90;76.05;99790.02;1801996;79;21023;-79
2022/08/18 03:31:49;;;;;;;9.05;5.75;;;;;;;20.92;76.09;99795.31;1793560;78;21091;-77
2022/08/18 03:34:19;;;;;;;10.93;5.67;;;;;;;20.92;75.97;99798.93;1773389;80;21039;-78
2022/08/18 03:36:49;;;;;;;14.78;5.95;;;;;;;20.95;75.94;99796.97;1784358;80;21036;-77
2022/08/18 03:39:18;;;;;;;11.22;6.33;;;;;;;20.96;75.73;99798.64;1773139;80;21447;-78
2022/08/18 03:41:48;;;;;;;11.12;5.42;;;;;;;20.95;75.59;99801.71;1785145;80;21036;-78
2022/08/18 03:44:19;;;;;;;9.85;5.58;;;;;;;20.90;75.74;99802.55;1781348;80;21012;-78
2022/08/18 03:46:49;;;;;;;10.23;5.15;;;;;;;20.84;76.00;99809.24;1787610;80;21012;-78
2022/08/18 03:49:19;;;;;;;10.98;5.28;;;;;;;20.83;75.99;99807.02;1786868;80;21489;-77
2022/08/18 03:51:50;;;;;;;8.15;5.30;;;;;;;20.83;75.99;99809.80;1787614;80;21059;-77
2022/08/18 03:54:19;;;;;;;11.03;5.95;;;;;;;20.83;75.88;99810.36;1786862;80;21075;-78
2022/08/18 03:56:48;;;;;;;12.93;5.53;;;;;;;20.82;75.74;99804.51;1787059;80;20992;-79
2022/08/18 03:59:20;;;;;;;10.53;5.67;;;;;;;20.80;75.70;99808.94;1778849;80;21102;-78
2022/08/18 04:01:51;;;;;;;11.12;5.53;;;;;;;20.81;75.60;99805.63;1783616;80;21037;-75
2022/08/18 04:04:25;;;;;;;12.82;5.70;;;;;;;20.80;75.53;99803.92;1781373;80;21096;-79
2022/08/18 04:07:05;;;;;;;13.35;6.17;;;;;;;20.80;75.44;99800.58;1781414;80;21443;-78
2022/08/18 04:09:35;;;;;;;7.72;5.67;;;;;;;20.81;75.34;99808.41;1784210;80;21055;-78
2022/08/18 04:12:10;;;;;;;11.22;5.90;;;;;;;20.79;75.13;99807.27;1784975;80;21440;-77
2022/08/18 04:14:42;;;;;;;;;;;;;;;20.81;74.93;99812.03;1782452;80;21059;-79
2022/08/18 04:17:11;;;;;;;15.00;6.20;;;;;;;20.83;74.76;99811.19;1785167;79;20465;-78
2022/08/18 04:19:40;;;;;;;13.10;6.28;;;;;;;20.79;74.60;99799.47;1789820;80;21024;-78
2022/08/18 04:22:10;;;;;;;12.65;5.22;;;;;;;20.79;74.68;99798.08;1784726;80;21574;-79
2022/08/18 04:24:43;;;;;;;9.60;5.85;;;;;;;20.82;74.47;99800.33;1784399;80;21456;-77
2022/08/18 04:27:14;;;;;;;11.12;6.10;;;;;;;20.82;74.38;99801.16;1791161;80;21000;-78
2022/08/18 04:29:43;;;;;;;13.90;5.67;;;;;;;20.83;74.18;99800.05;1789991;80;21015;-79
2022/08/18 04:32:12;;;;;;;8.00;5.17;;;;;;;20.86;74.07;99803.67;1782278;80;21090;-79
2022/08/18 04:34:42;;;;;;;10.38;5.55;;;;;;;20.88;73.80;99808.95;1793339;80;21054;-78
2022/08/18 04:37:12;;;;;;;14.30;5.58;;;;;;;20.89;73.43;99813.41;1793710;79;21051;-79
2022/08/18 04:39:41;;;;;;;12.03;5.75;;;;;;;20.90;73.33;99820.66;1775739;80;21059;-77
2022/08/18 04:42:11;;;;;;;16.90;5.90;;;;;;;20.89;73.28;99816.20;1787086;79;21076;-78
2022/08/18 04:44:40;;;;;;;8.05;5.15;;;;;;;20.91;73.17;99821.48;1772901;80;20993;-77
2022/08/18 04:47:09;;;;;;;7.92;5.30;;;;;;;20.93;73.10;99822.05;1790292;79;21004;-76
2022/08/18 04:49:39;;;;;;;12.55;5.87;;;;;;;20.93;72.34;99815.92;1790666;79;21062;-77
2022/08/18 04:55:00;;;;;;;14.47;6.17;;;;;;;20.97;72.06;99824.55;1753258;80;21024;-78
2022/08/18 04:57:32;;;;;;;12.47;5.62;;;;;;;21.01;71.92;99825.09;1783743;80;21013;-78
2022/08/18 05:00:05;;;;;;;9.23;5.78;;;;;;;21.07;71.70;99823.97;1783233;80;21011;-75
2022/08/18 05:02:34;;;;;;;9.70;4.97;;;;;;;21.12;71.10;99828.14;1783859;80;21077;-78
2022/08/18 05:05:04;;;;;;;9.60;5.45;;;;;;;21.18;70.85;99827.02;1783937;80;21014;-77
2022/08/18 05:07:33;;;;;;;11.00;5.58;;;;;;;21.23;70.76;99823.98;1784654;80;21088;-77
2022/08/18 05:10:04;;;;;;;14.55;5.78;;;;;;;21.24;70.50;99823.70;1784348;80;21006;-78
2022/08/18 05:12:34;;;;;;;7.33;5.10;;;;;;;21.28;70.26;99819.78;1784409;80;21503;-78
2022/08/18 05:15:05;;;;;;;14.30;5.08;;;;;;;21.33;69.75;99823.95;1784745;80;21029;-77
2022/08/18 05:17:38;;;;;;;11.00;5.78;;;;;;;21.33;69.29;99818.37;1783979;80;21002;-79
2022/08/18 05:20:10;;;;;;;12.93;5.50;;;;;;;21.33;68.91;99827.57;1783601;80;20998;-78
2022/08/18 05:22:41;;;;;;;12.63;5.12;;;;;;;21.38;68.61;99832.30;1784467;80;20993;-77
2022/08/18 05:25:11;;;;;;;8.93;4.78;;;;;;;21.41;68.39;99828.39;1783760;80;21713;-77
2022/08/18 05:27:42;;;;;;;7.90;4.90;;;;;;;21.43;68.10;99826.15;1783091;80;21474;-78
2022/08/18 05:30:14;;;;;;;11.73;5.55;;;;;;;21.47;67.98;99831.47;1783168;80;21089;-78
2022/08/18 05:32:45;;;;;;;11.20;5.30;;;;;;;21.50;67.50;99819.75;1795524;79;21021;-76
2022/08/18 05:35:24;;;;;;;8.48;5.03;;;;;;;21.50;67.42;99821.70;1769998;80;21014;-78
2022/08/18 05:38:25;;;;;;;7.53;4.90;;;;;;;21.52;67.33;99826.43;1797700;80;21021;-79
2022/08/18 05:41:13;;;;;;;8.75;5.20;;;;;;;21.53;67.21;99826.71;1797117;79;21076;-80
2022/08/18 05:43:45;;;;;;;10.70;4.97;;;;;;;21.56;67.09;99825.30;1793928;79;21029;-78
2022/08/18 05:46:16;;;;;;;11.83;5.50;;;;;;;21.58;67.17;99825.30;1797400;80;21430;-77
2022/08/18 05:48:47;;;;;;;8.10;5.30;;;;;;;21.63;67.06;99823.88;1797204;79;21022;-78
2022/08/18 05:51:21;;;;;;;7.92;5.22;;;;;;;21.65;66.70;99821.64;1798154;79;21017;-77
2022/08/18 05:56:47;;;;;;;13.78;5.22;;;;;;;21.70;66.18;99819.39;1798060;80;21024;-79
2022/08/18 05:59:33;;;;;;;9.70;4.75;;;;;;;21.72;66.11;99824.13;1764292;80;21064;-80
2022/08/18 06:02:14;;;;;;;11.50;4.65;;;;;;;21.75;65.94;99831.92;1798005;79;21029;-80
2022/08/18 06:04:54;;;;;;;7.95;5.00;;;;;;;21.82;65.75;99824.91;1798130;80;21434;-80
2022/08/18 06:07:48;;;;;;;11.70;5.15;;;;;;;21.88;65.71;99829.91;1797482;79;21016;-78
2022/08/18 06:10:17;;;;;;;12.13;5.30;;;;;;;21.93;65.47;99826.26;1797898;79;21045;-80
2022/08/18 06:12:50;;;;;;;19.50;9.00;;;;;;;21.97;65.36;99830.14;1797908;79;21013;-79
2022/08/18 06:15:28;;;;;;;11.22;4.97;;;;;;;21.99;64.98;99832.09;1787328;80;21005;-80
2022/08/18 06:18:08;;;;;;;11.48;5.10;;;;;;;22.00;64.55;99830.41;1797237;80;21045;-79
2022/08/18 06:21:09;;;;;;;8.30;4.90;;;;;;;22.03;64.66;99836.00;1797133;80;21002;-76
2022/08/18 06:24:24;;;;;;;14.68;5.08;;;;;;;22.08;64.56;99840.16;1797694;80;21052;-77
2022/08/18 06:27:14;;;;;;;14.95;5.58;;;;;;;22.18;64.40;99837.91;1793858;80;21032;-76
2022/08/18 06:29:54;;;;;;;12.75;5.35;;;;;;;22.27;64.25;99842.59;1798349;79;20993;-77
2022/08/18 06:32:46;;;;;;;17.05;5.65;;;;;;;22.31;63.73;99844.24;1797754;80;21005;-77
2022/08/18 06:35:25;;;;;;;12.58;5.35;;;;;;;22.35;63.76;99845.33;1785002;80;21041;-76
2022/08/18 06:41:03;;;;;;;8.93;5.10;;;;;;;22.86;63.77;99841.66;1767534;80;21048;-77
2022/08/18 06:43:33;;;;;;;9.13;5.03;;;;;;;23.39;62.16;99841.70;1797777;79;21461;-77
2022/08/18 06:46:13;;;;;;;10.75;5.37;;;;;;;23.87;60.92;99847.34;1797574;80;21087;-78
2022/08/18 06:48:53;;;;;;;7.70;5.10;;;;;;;24.27;59.92;99828.66;1797998;80;21001;-78
2022/08/18 06:51:23;;;;;;;11.95;5.15;;;;;;;24.67;57.78;99823.56;1788596;80;21045;-77
2022/08/18 06:54:00;;;;;;;9.68;5.83;;;;;;;25.13;57.01;99833.47;1768911;80;20997;-77
2022/08/18 06:56:44;;;;;;;10.20;5.95;;;;;;;25.50;55.56;99838.12;1794497;79;21551;-76
2022/08/18 06:59:24;;;;;;;15.45;6.62;;;;;;;25.82;53.95;99840.03;1798073;79;20961;-77
2022/08/18 07:02:16;;;;;;;8.98;4.90;;;;;;;26.10;52.71;99842.84;1797154;79;21029;-77
2022/08/18 07:05:08;;;;;;;9.98;4.87;;;;;;;26.29;52.08;99846.91;1798129;79;21132;-78
2022/08/18 07:07:40;;;;;;;8.18;5.20;;;;;;;26.59;51.13;99841.19;1797101;80;21037;-76
2022/08/18 07:10:21;;;;;;;10.45;4.75;;;;;;;26.78;50.33;99831.45;1798054;80;21056;-76
2022/08/18 07:12:51;;;;;;;10.58;4.92;;;;;;;27.01;49.23;99832.88;1798075;80;21021;-78
2022/08/18 07:15:23;;;;;;;9.25;4.78;;;;;;;27.25;49.20;99838.16;1797589;80;21441;-77
2022/08/18 07:17:53;;;;;;;12.00;5.00;;;;;;;27.46;48.31;99837.31;1797676;80;21060;-76
2022/08/18 07:20:24;;;;;;;10.45;4.90;;;;;;;27.63;47.76;99825.91;1743270;80;21030;-77
2022/08/18 07:23:00;;;;;;;7.15;4.70;;;;;;;27.90;46.75;99831.30;1797691;80;21053;-77
2022/08/18 07:25:40;;;;;;;9.48;4.83;;;;;;;28.14;45.80;99836.52;1786593;80;21049;-78
2022/08/18 07:28:40;;;;;;;10.48;5.00;;;;;;;28.25;45.29;99839.88;1797278;80;20994;-77
2022/08/18 07:31:41;;;;;;;11.45;4.92;;;;;;;28.33;45.25;99839.89;1797895;79;21488;-78
2022/08/18 07:34:24;;;;;;;8.58;5.08;;;;;;;28.40;45.09;99841.64;1802829;78;21024;-76
2022/08/18 07:37:13;;;;;;;13.20;4.92;;;;;;;28.55;44.56;99837.50;1809786;78;21014;-76
2022/08/18 07:39:51;;;;;;;14.35;5.05;;;;;;;28.62;45.01;99841.27;1813003;79;21054;-77
2022/08/18 07:42:43;;;;;;;12.95;5.00;;;;;;;28.80;44.24;99840.09;1798284;79;21040;-75
2022/08/18 07:45:41;;;;;;;7.50;4.50;;;;;;;29.01;44.01;99844.50;1805667;78;20995;-77
2022/08/18 07:48:19;;;;;;;9.60;4.60;;;;;;;29.15;43.79;99839.50;1812297;79;21003;-79
2022/08/18 07:50:59;;;;;;;9.40;4.67;;;;;;;29.28;43.25;99841.32;1795884;79;20975;-75
2022/08/18 07:54:19;;;;;;;8.95;4.35;;;;;;;29.45;42.74;99843.88;1798470;79;21079;-73
2022/08/18 07:57:03;;;;;;;13.83;5.28;;;;;;;29.58;42.52;99840.01;1794584;79;21445;-73
2022/08/18 07:59:59;;;;;;;11.95;5.17;;;;;;;29.59;41.67;99841.66;1817724;78;21014;-73
2022/08/18 08:03:01;;;;;;;9.65;5.12;;;;;;;29.47;42.12;99829.67;1812441;78;21060;-72
2022/08/18 08:05:42;;;;;;;10.58;4.90;;;;;;;29.63;42.23;99837.83;1799714;79;21037;-72
2022/08/18 08:08:26;;;;;;;13.22;4.95;;;;;;;29.94;41.26;99838.95;1809899;78;21061;-72
2022/08/18 08:11:39;;;;;;;10.28;4.65;;;;;;;30.03;41.48;99831.04;1805062;79;21053;-71
2022/08/18 08:14:22;;;;;;;10.78;4.45;;;;;;;30.10;41.49;99835.56;1809346;79;20991;-74
2022/08/18 08:17:07;;;;;;;19.87;5.40;;;;;;;30.27;40.64;99822.15;1812556;79;21002;-72
2022/08/18 08:19:50;;;;;;;9.75;5.42;;;;;;;30.32;40.63;99819.70;1806883;78;21092;-74
2022/08/18 08:23:02;;;;;;;8.93;4.80;;;;;;;30.36;40.52;99819.84;1817116;79;21077;-74
2022/08/18 08:25:36;;;;;;;10.40;4.33;;;;;;;30.41;40.24;99819.64;1807330;79;21086;-73
2022/08/18 08:28:12;;;;;;;10.45;4.80;;;;;;;30.40;40.31;99825.05;1812661;79;21122;-74
2022/08/18 08:30:50;;;;;;;6.55;4.47;;;;;;;30.24;39.96;99822.84;1818897;78;21000;-73
2022/08/18 08:33:48;;;;;;;13.70;4.80;;;;;;;30.27;39.73;99825.56;1789695;79;21111;-73
2022/08/18 08:36:22;;;;;;;11.63;4.53;;;;;;;30.39;40.12;99831.29;1776718;80;21020;-73
2022/08/18 08:39:01;;;;;;;8.53;4.42;;;;;;;30.42;40.49;99830.61;1779327;80;21494;-72
2022/08/18 08:41:39;;;;;;;9.93;4.65;;;;;;;30.42;40.52;99833.43;1778543;80;21044;-74
2022/08/18 08:44:45;;;;;;;21.75;4.72;;;;;;;30.46;40.17;99836.40;1750153;81;21490;-73
2022/08/18 08:47:22;;;;;;;10.85;4.70;;;;;;;30.48;40.32;99838.30;1778054;80;21034;-73
2022/08/18 08:50:08;;;;;;;7.95;4.25;;;;;;;30.61;39.96;99843.49;1778592;80;21097;-73
2022/08/18 08:53:04;;;;;;;8.65;4.87;;;;;;;30.67;39.43;99841.52;1779229;80;21276;-73
2022/08/18 08:55:39;;;;;;;12.80;4.55;;;;;;;30.54;39.77;99848.23;1779762;80;21018;-74
2022/08/18 08:58:35;;;;;;;9.53;4.72;;;;;;;30.51;39.51;99837.02;1778895;80;21046;-72
2022/08/18 09:01:04;;;;;;;10.98;4.83;;;;;;;30.60;39.80;99839.84;1767681;80;21002;-73
2022/08/18 09:03:48;;;;;;;8.65;4.17;;;;;;;30.67;39.75;99842.11;1778976;80;21070;-70
2022/08/18 09:06:35;;;;;;;10.25;4.53;;;;;;;30.70;39.45;99845.66;1768805;80;21034;-73
2022/08/18 09:09:51;;;;;;;8.93;4.33;;;;;;;30.55;39.58;99846.47;1758883;81;21816;-73
2022/08/18 09:12:32;;;;;;;8.48;4.67;;;;;;;30.42;40.16;99848.16;1775010;80;21079;-73
2022/08/18 09:15:25;;;;;;;9.50;4.75;;;;;;;30.16;40.61;99844.92;1766390;80;21051;-71
2022/08/18 09:18:18;;;;;;;13.30;4.60;;;;;;;30.01;40.75;99834.77;1761867;81;21109;-71
2022/08/18 09:20:53;;;;;;;17.02;5.05;;;;;;;29.87;41.05;99833.56;1753815;81;21555;-73
2022/08/18 09:23:32;;;;;;;10.55;4.70;;;;;;;29.70;41.05;99837.30;1766859;80;21445;-72
2022/08/18 09:26:32;;;;;;;9.53;4.25;;;;;;;29.54;41.62;99831.97;1778788;80;21080;-70
2022/08/18 09:29:15;;;;;;;11.35;4.17;;;;;;;29.39;41.84;99832.49;1779295;80;21046;-72
2022/08/18 09:31:45;;;;;;;8.13;4.40;;;;;;;29.17;42.32;99835.76;1769025;80;21003;-71
2022/08/18 09:34:25;;;;;;;18.07;5.58;;;;;;;29.06;42.80;99824.58;1796743;79;21032;-71
2022/08/18 09:37:23;;;;;;;9.53;4.40;;;;;;;28.94;43.00;99832.31;1798027;79;21446;-71
2022/08/18 09:42:57;;;;;;;7.83;4.35;;;;;;;28.89;42.51;99828.84;1567173;90;21072;-71
2022/08/18 09:45:34;;;;;;;12.05;4.50;;;;;;;28.87;42.83;99828.34;1570958;90;21094;-71
2022/08/18 09:48:19;;;;;;;11.57;4.25;;;;;;;28.95;43.01;99833.15;1570665;90;21498;-70
2022/08/18 09:50:56;;;;;;;8.03;4.22;;;;;;;28.95;43.01;99833.15;1558486;90;21235;-70
2022/08/18 09:53:47;;;;;;;12.73;4.78;;;;;;;28.91;42.10;99828.75;1570262;91;21070;-70
2022/08/18 09:56:49;;;;;;;8.40;3.87;;;;;;;28.85;42.62;99830.09;1572397;90;21353;-70
2022/08/18 09:59:37;;;;;;;10.93;4.15;;;;;;;28.80;41.79;99829.40;1545283;91;21319;-72
2022/08/18 10:02:13;;;;;;;6.53;3.80;;;;;;;28.80;41.79;99829.40;1553144;91;21025;-72
2022/08/18 10:04:50;;;;;;;11.25;4.30;;;;;;;28.74;41.45;99824.52;1616669;88;21060;-72
2022/08/18 10:07:34;;;;;;;10.60;4.90;;;;;;;28.69;41.35;99826.92;1626121;88;21078;-72
2022/08/18 10:10:40;;;;;;;12.98;4.20;;;;;;;28.65;41.50;99827.91;1603520;88;21108;-72
2022/08/18 10:13:43;;;;;;;8.78;3.92;;;;;;;28.52;41.63;99821.84;1623087;88;21107;-71
2022/08/18 10:16:34;;;;;;;16.10;6.37;;;;;;;28.46;42.02;99829.62;1632666;86;21056;-72
2022/08/18 10:19:51;;;;;;;9.28;4.22;;;;;;;28.47;42.35;99827.64;1661043;85;21085;-71
2022/08/18 10:22:40;;;;;;;6.80;3.90;;;;;;;28.54;41.72;99832.20;1655250;86;21043;-66
2022/08/18 10:25:10;;;;;;;11.00;3.92;;;;;;;28.54;41.66;99825.15;1654698;85;21084;-64
2022/08/18 10:27:47;;;;;;;11.12;4.20;;;;;;;28.51;41.60;99818.19;1658247;86;21117;-64
2022/08/18 10:30:37;;;;;;;15.78;4.67;;;;;;;28.44;41.86;99826.89;1661511;85;21010;-63
2022/08/18 10:33:10;;;;;;;10.53;4.08;;;;;;;28.41;42.10;99823.58;1654076;85;21088;-63
2022/08/18 10:35:57;;;;;;;7.67;3.90;;;;;;;28.44;41.87;99823.48;1659068;84;21449;-63
2022/08/18 10:38:43;;;;;;;8.85;3.98;;;;;;;28.46;41.99;99826.80;1671665;84;21092;-63
2022/08/18 10:41:25;;;;;;;9.50;4.22;;;;;;;28.47;41.98;99823.41;1687447;84;21068;-64
2022/08/18 10:43:56;;;;;;;8.28;4.00;;;;;;;28.47;42.20;99824.23;1644055;86;21063;-63
2022/08/18 10:46:33;;;;;;;12.68;4.20;;;;;;;28.47;42.31;99824.23;1686613;83;21219;-63
2022/08/18 10:49:15;;;;;;;9.55;3.77;;;;;;;28.46;42.43;99825.40;1677618;84;21063;-65
2022/08/18 10:52:16;;;;;;;11.75;4.87;;;;;;;28.48;42.63;99821.66;1679707;84;21037;-63
2022/08/18 10:55:19;;;;;;;7.85;4.30;;;;;;;28.54;42.54;99829.38;1697226;84;21071;-66
2022/08/18 10:58:39;;;;;;;10.38;3.70;;;;;;;28.63;42.59;99836.70;1697889;82;21090;-63
2022/08/18 11:01:41;;;;;;;9.90;3.92;;;;;;;28.72;41.93;99828.25;1699171;83;22067;-64
2022/08/18 11:04:28;;;;;;;9.90;3.87;;;;;;;28.70;41.65;99824.34;1689456;83;21060;-66
2022/08/18 11:07:11;;;;;;;10.53;4.17;;;;;;;28.70;41.44;99821.53;1681969;84;21080;-65
2022/08/18 11:09:48;;;;;;;6.95;3.77;;;;;;;28.68;41.34;99828.66;1686094;84;21057;-65
2022/08/18 11:12:58;;;;;;;10.00;4.00;;;;;;;28.58;41.58;99834.60;1687245;84;21077;-63
2022/08/18 11:15:59;;;;;;;8.43;3.95;;;;;;;28.49;41.91;99834.59;1696971;84;21064;-63
2022/08/18 11:18:37;;;;;;;10.80;4.37;;;;;;;28.46;42.28;99821.17;1681304;84;21060;-64
2022/08/18 11:21:39;;;;;;;7.33;4.10;;;;;;;28.53;42.42;99824.91;1685081;84;21076;-64
2022/08/18 11:24:26;;;;;;;10.15;4.05;;;;;;;28.57;42.33;99822.50;1699288;84;21025;-64
2022/08/18 11:27:05;;;;;;;8.50;4.72;;;;;;;28.56;42.40;99810.97;1701454;83;21080;-66
2022/08/18 11:29:38;;;;;;;7.33;4.30;;;;;;;28.50;42.80;99815.70;1691032;84;21019;-65
2022/08/18 11:32:22;;;;;;;7.37;4.25;;;;;;;28.52;43.19;99818.44;1683779;84;21084;-64
2022/08/18 11:35:16;;;;;;;6.65;4.00;;;;;;;28.57;42.98;99816.03;1695577;84;21080;-65
2022/08/18 11:37:50;;;;;;;14.80;4.50;;;;;;;28.56;42.84;99808.73;1685449;84;21128;-65
2022/08/18 11:40:40;;;;;;;5.47;3.90;;;;;;;28.54;43.16;99799.20;1697489;82;21029;-62
2022/08/18 11:43:32;;;;;;;15.23;4.50;;;;;;;28.60;42.75;99809.15;1677672;84;21045;-63
2022/08/18 11:46:29;;;;;;;9.95;4.35;;;;;;;28.65;42.38;99805.36;1669126;84;21104;-64
2022/08/18 11:49:00;;;;;;;8.18;4.20;;;;;;;28.65;42.77;99808.18;1694080;83;21064;-63
2022/08/18 11:51:32;;;;;;;8.65;4.20;;;;;;;28.67;42.96;99805.86;1675297;84;21558;-66
2022/08/18 11:54:16;;;;;;;9.63;4.22;;;;;;;28.67;42.91;99801.63;1695326;84;21043;-65
2022/08/18 11:56:45;;;;;;;9.93;4.58;;;;;;;28.67;42.74;99804.45;1656330;86;21044;-65
2022/08/18 11:59:34;;;;;;;9.68;4.50;;;;;;;28.64;42.75;99806.52;1644571;86;21075;-64
2022/08/18 12:02:11;;;;;;;17.00;4.80;;;;;;;28.60;42.73;99796.46;1687321;83;21026;-64
2022/08/18 12:04:45;;;;;;;10.53;4.78;;;;;;;28.58;42.78;99800.77;1691202;83;21446;-65
2022/08/18 12:07:16;;;;;;;10.60;4.42;;;;;;;28.55;42.74;99802.27;1697284;84;21468;-65
2022/08/18 12:09:50;;;;;;;8.55;4.17;;;;;;;28.54;42.96;99796.96;1700020;84;21061;-65
2022/08/18 12:12:25;;;;;;;8.18;4.22;;;;;;;28.52;43.01;99791.66;1688717;84;21070;-65
2022/08/18 12:15:15;;;;;;;9.45;4.75;;;;;;;28.51;43.31;99797.63;1689084;84;21029;-64
2022/08/18 12:17:46;;;;;;;8.70;4.03;;;;;;;28.53;43.51;99797.55;1696051;82;21037;-65
2022/08/18 12:20:19;;;;;;;12.45;4.80;;;;;;;28.56;43.49;99795.47;1677247;84;21056;-64
2022/08/18 12:22:53;;;;;;;7.87;4.62;;;;;;;28.62;43.32;99806.03;1692119;84;21544;-63
2022/08/18 12:25:23;;;;;;;7.47;3.80;;;;;;;28.64;43.25;99803.13;1620678;84;21050;-64
2022/08/18 12:27:53;;;;;;;9.00;4.00;;;;;;;28.66;43.27;99802.21;1683306;84;21161;-63
2022/08/18 12:30:23;;;;;;;11.33;4.67;;;;;;;28.67;43.35;99803.87;1667972;86;21471;-64
2022/08/18 12:32:54;;;;;;;10.15;4.33;;;;;;;28.68;43.43;99806.94;1699366;84;21048;-64
2022/08/18 12:35:26;;;;;;;11.45;4.12;;;;;;;28.70;43.26;99800.97;1695731;82;21476;-65
2022/08/18 12:37:55;;;;;;;10.08;5.08;;;;;;;28.70;42.75;99800.38;1693728;84;21068;-64
2022/08/18 12:40:26;;;;;;;8.65;3.80;;;;;;;28.67;42.56;99788.94;1717793;81;21105;-65
2022/08/18 12:42:58;;;;;;;11.48;4.40;;;;;;;28.66;42.77;99785.30;1722588;83;21026;-64